This is the latest recevied weather packets stored in our database for station/object KC5TIL. If no packets are shown the sender has not sent any weather packets the latest 10 day(s).
| Time | Temp. | Humidity | Pressure | Rain* | Wind** | Luminosity | Snow |
|---|---|---|---|---|---|---|---|
| 1777488934 | 16.11° C | 82% | 1017.2 hPa | 0 mm | - | 110 W/m² | - |
| 1777488631 | 16.11° C | 83% | 1018.2 hPa | 0 mm | - | 13 W/m² | - |
| 1777488329 | 16.11° C | 82% | 1016.9 hPa | 0 mm | - | 35 W/m² | - |
| 1777488027 | 16.11° C | 82% | 1016.6 hPa | 0 mm | - | 62 W/m² | - |
| 1777487724 | 16.11° C | 82% | 1016.7 hPa | 0 mm | - | 93 W/m² | - |
| 1777487422 | 16.11° C | 83% | 1016.8 hPa | 0 mm | - | 49 W/m² | - |
| 1777487119 | 16.11° C | 82% | 1016.8 hPa | 0 mm | - | 62 W/m² | - |
| 1777486815 | 16.11° C | 84% | 1016.3 hPa | 0 mm | - | 149 W/m² | - |
| 1777486512 | 16.11° C | 83% | 1016.3 hPa | 0 mm | - | 186 W/m² | - |
| 1777486209 | 16.11° C | 82% | 1016.9 hPa | 0 mm | - | 92 W/m² | - |
| 1777485907 | 16.11° C | 82% | 1017.4 hPa | 0 mm | - | 87 W/m² | - |
| 1777485603 | 16.11° C | 82% | 1017.4 hPa | 0 mm | - | 41 W/m² | - |
| 1777485298 | 16.11° C | 82% | 1017.4 hPa | 0 mm | - | 50 W/m² | - |
| 1777484995 | 16.11° C | 82% | 1017.3 hPa | 0 mm | - | 50 W/m² | - |
| 1777484692 | 16.11° C | 82% | 1017.5 hPa | 0 mm | - | 62 W/m² | - |
| 1777484389 | 16.11° C | 80% | 1018 hPa | 0 mm | - | 52 W/m² | - |
| 1777484084 | 16.67° C | 80% | 1017.8 hPa | 0 mm | - | 72 W/m² | - |
| 1777483781 | 16.67° C | 80% | 1017.6 hPa | 0 mm | - | 78 W/m² | - |
| 1777483478 | 16.67° C | 79% | 1017.8 hPa | 0 mm | - | 69 W/m² | - |
| 1777483173 | 16.67° C | 80% | 1017.8 hPa | 0 mm | - | 97 W/m² | - |
| 1777482870 | 16.11° C | 80% | 1017.8 hPa | 0 mm | - | 61 W/m² | - |
| 1777482565 | 16.11° C | 80% | 1017.8 hPa | 0 mm | - | 70 W/m² | - |
| 1777482263 | 16.11° C | 80% | 1017.3 hPa | 0 mm | - | 92 W/m² | - |
| 1777481960 | 16.11° C | 80% | 1017.4 hPa | 0 mm | - | 65 W/m² | - |
| 1777481658 | 16.11° C | 79% | 1017.9 hPa | 0 mm | - | 49 W/m² | - |
* Rain latest hour (hover to see other rain measurements)
** Current wind speed in m/s (hover to see current wind gust speed)